sensor_id;sensor_type;location;lat;lon;timestamp;temperature;humidity
64062;DHT22;50308;47.438;-1.528;2022-09-27T00:00:43;16.00;66.90
64062;DHT22;50308;47.438;-1.528;2022-09-27T00:03:09;16.00;66.70
64062;DHT22;50308;47.438;-1.528;2022-09-27T00:05:35;16.00;66.90
64062;DHT22;50308;47.438;-1.528;2022-09-27T00:08:01;15.90;67.00
64062;DHT22;50308;47.438;-1.528;2022-09-27T00:10:27;15.90;66.90
64062;DHT22;50308;47.438;-1.528;2022-09-27T00:12:53;15.90;67.20
64062;DHT22;50308;47.438;-1.528;2022-09-27T00:15:19;15.90;67.00
64062;DHT22;50308;47.438;-1.528;2022-09-27T00:17:45;15.90;67.20
64062;DHT22;50308;47.438;-1.528;2022-09-27T00:20:11;15.90;67.10
64062;DHT22;50308;47.438;-1.528;2022-09-27T00:22:36;15.90;67.30
64062;DHT22;50308;47.438;-1.528;2022-09-27T00:25:02;15.80;67.20
64062;DHT22;50308;47.438;-1.528;2022-09-27T00:27:30;15.80;67.20
64062;DHT22;50308;47.438;-1.528;2022-09-27T00:29:55;15.90;67.30
64062;DHT22;50308;47.438;-1.528;2022-09-27T00:32:21;15.90;67.10
64062;DHT22;50308;47.438;-1.528;2022-09-27T00:34:46;15.90;67.00
64062;DHT22;50308;47.438;-1.528;2022-09-27T00:37:12;15.90;67.20
64062;DHT22;50308;47.438;-1.528;2022-09-27T00:39:37;15.80;67.10
64062;DHT22;50308;47.438;-1.528;2022-09-27T00:42:09;15.80;67.30
64062;DHT22;50308;47.438;-1.528;2022-09-27T00:47:15;15.70;67.40
64062;DHT22;50308;47.438;-1.528;2022-09-27T00:49:44;15.60;67.60
64062;DHT22;50308;47.438;-1.528;2022-09-27T00:52:15;15.70;67.50
64062;DHT22;50308;47.438;-1.528;2022-09-27T00:54:41;15.70;67.50
64062;DHT22;50308;47.438;-1.528;2022-09-27T00:57:08;15.60;67.70
64062;DHT22;50308;47.438;-1.528;2022-09-27T00:59:35;15.70;67.70
64062;DHT22;50308;47.438;-1.528;2022-09-27T01:02:03;15.70;67.40
64062;DHT22;50308;47.438;-1.528;2022-09-27T01:04:29;15.70;67.50
64062;DHT22;50308;47.438;-1.528;2022-09-27T01:06:56;15.70;67.60
64062;DHT22;50308;47.438;-1.528;2022-09-27T01:09:22;15.70;67.50
64062;DHT22;50308;47.438;-1.528;2022-09-27T01:32:06;15.40;68.00
64062;DHT22;50308;47.438;-1.528;2022-09-27T01:34:41;15.50;68.00
64062;DHT22;50308;47.438;-1.528;2022-09-27T01:37:35;15.40;67.90
64062;DHT22;50308;47.438;-1.528;2022-09-27T01:40:09;15.40;68.10
64062;DHT22;50308;47.438;-1.528;2022-09-27T01:42:44;15.50;67.90
64062;DHT22;50308;47.438;-1.528;2022-09-27T01:45:18;15.40;67.80
64062;DHT22;50308;47.438;-1.528;2022-09-27T01:47:46;15.40;67.90
64062;DHT22;50308;47.438;-1.528;2022-09-27T01:50:15;15.40;68.00
64062;DHT22;50308;47.438;-1.528;2022-09-27T01:52:49;15.40;68.30
64062;DHT22;50308;47.438;-1.528;2022-09-27T01:55:15;15.30;68.30
64062;DHT22;50308;47.438;-1.528;2022-09-27T01:57:43;15.40;68.40
64062;DHT22;50308;47.438;-1.528;2022-09-27T02:00:10;15.40;68.50
64062;DHT22;50308;47.438;-1.528;2022-09-27T02:02:38;15.50;68.30
64062;DHT22;50308;47.438;-1.528;2022-09-27T02:05:04;15.50;68.30
64062;DHT22;50308;47.438;-1.528;2022-09-27T02:07:36;15.50;68.30
64062;DHT22;50308;47.438;-1.528;2022-09-27T02:12:30;15.50;68.30
64062;DHT22;50308;47.438;-1.528;2022-09-27T02:14:57;15.60;67.90
64062;DHT22;50308;47.438;-1.528;2022-09-27T02:20:56;15.50;68.20
64062;DHT22;50308;47.438;-1.528;2022-09-27T02:22:59;15.50;68.20
64062;DHT22;50308;47.438;-1.528;2022-09-27T02:25:33;15.60;68.10
64062;DHT22;50308;47.438;-1.528;2022-09-27T02:30:29;15.50;68.30
64062;DHT22;50308;47.438;-1.528;2022-09-27T02:32:54;15.60;68.40
64062;DHT22;50308;47.438;-1.528;2022-09-27T02:35:24;15.60;68.40
64062;DHT22;50308;47.438;-1.528;2022-09-27T02:37:50;15.60;68.60
64062;DHT22;50308;47.438;-1.528;2022-09-27T02:40:16;15.60;68.30
64062;DHT22;50308;47.438;-1.528;2022-09-27T02:42:42;15.60;68.20
64062;DHT22;50308;47.438;-1.528;2022-09-27T02:45:08;15.60;68.40
64062;DHT22;50308;47.438;-1.528;2022-09-27T02:50:09;15.70;67.80
64062;DHT22;50308;47.438;-1.528;2022-09-27T02:55:31;15.80;67.80
64062;DHT22;50308;47.438;-1.528;2022-09-27T03:00:41;15.70;68.80
64062;DHT22;50308;47.438;-1.528;2022-09-27T03:05:43;15.80;67.60
64062;DHT22;50308;47.438;-1.528;2022-09-27T03:08:10;15.80;67.60
64062;DHT22;50308;47.438;-1.528;2022-09-27T03:10:36;15.80;67.50
64062;DHT22;50308;47.438;-1.528;2022-09-27T03:13:02;15.80;67.60
64062;DHT22;50308;47.438;-1.528;2022-09-27T03:15:29;15.80;67.60
64062;DHT22;50308;47.438;-1.528;2022-09-27T03:17:54;15.80;67.50
64062;DHT22;50308;47.438;-1.528;2022-09-27T03:20:20;15.80;67.60
64062;DHT22;50308;47.438;-1.528;2022-09-27T03:22:46;15.80;67.80
64062;DHT22;50308;47.438;-1.528;2022-09-27T03:25:11;15.80;67.70
64062;DHT22;50308;47.438;-1.528;2022-09-27T03:27:37;15.80;67.60
64062;DHT22;50308;47.438;-1.528;2022-09-27T03:30:03;15.80;67.60
64062;DHT22;50308;47.438;-1.528;2022-09-27T03:32:28;15.80;67.70
64062;DHT22;50308;47.438;-1.528;2022-09-27T03:34:55;15.80;67.80
64062;DHT22;50308;47.438;-1.528;2022-09-27T03:37:21;15.80;67.90
64062;DHT22;50308;47.438;-1.528;2022-09-27T03:39:47;15.80;67.80
64062;DHT22;50308;47.438;-1.528;2022-09-27T03:42:12;15.70;68.00
64062;DHT22;50308;47.438;-1.528;2022-09-27T03:44:38;15.70;68.00
64062;DHT22;50308;47.438;-1.528;2022-09-27T03:47:04;15.80;68.00
64062;DHT22;50308;47.438;-1.528;2022-09-27T03:49:29;15.70;67.90
64062;DHT22;50308;47.438;-1.528;2022-09-27T03:51:56;15.80;68.00
64062;DHT22;50308;47.438;-1.528;2022-09-27T03:54:22;15.70;68.00
64062;DHT22;50308;47.438;-1.528;2022-09-27T03:56:49;15.70;68.00
64062;DHT22;50308;47.438;-1.528;2022-09-27T03:59:16;15.80;68.00
64062;DHT22;50308;47.438;-1.528;2022-09-27T04:01:41;15.70;69.10
64062;DHT22;50308;47.438;-1.528;2022-09-27T04:04:08;15.70;68.20
64062;DHT22;50308;47.438;-1.528;2022-09-27T04:06:34;15.80;67.90
64062;DHT22;50308;47.438;-1.528;2022-09-27T04:09:00;15.80;68.00
64062;DHT22;50308;47.438;-1.528;2022-09-27T04:11:26;15.80;67.80
64062;DHT22;50308;47.438;-1.528;2022-09-27T04:13:52;15.70;67.90
64062;DHT22;50308;47.438;-1.528;2022-09-27T04:16:17;15.70;68.20
64062;DHT22;50308;47.438;-1.528;2022-09-27T04:18:43;15.70;68.10
64062;DHT22;50308;47.438;-1.528;2022-09-27T04:21:09;15.80;68.20
64062;DHT22;50308;47.438;-1.528;2022-09-27T04:23:34;15.70;68.10
64062;DHT22;50308;47.438;-1.528;2022-09-27T04:26:01;15.70;68.20
64062;DHT22;50308;47.438;-1.528;2022-09-27T04:28:26;15.60;68.40
64062;DHT22;50308;47.438;-1.528;2022-09-27T04:30:54;15.60;68.40
64062;DHT22;50308;47.438;-1.528;2022-09-27T04:33:20;15.70;68.50
64062;DHT22;50308;47.438;-1.528;2022-09-27T04:35:46;15.60;68.30
64062;DHT22;50308;47.438;-1.528;2022-09-27T04:38:30;15.60;68.30
64062;DHT22;50308;47.438;-1.528;2022-09-27T04:40:55;15.60;68.60
64062;DHT22;50308;47.438;-1.528;2022-09-27T04:43:21;15.60;68.50
64062;DHT22;50308;47.438;-1.528;2022-09-27T04:45:46;15.50;68.70
64062;DHT22;50308;47.438;-1.528;2022-09-27T04:48:12;15.60;68.70
64062;DHT22;50308;47.438;-1.528;2022-09-27T04:50:38;15.60;68.60
64062;DHT22;50308;47.438;-1.528;2022-09-27T04:53:04;15.60;68.50
64062;DHT22;50308;47.438;-1.528;2022-09-27T04:55:30;15.60;68.80
64062;DHT22;50308;47.438;-1.528;2022-09-27T04:57:56;15.60;68.80
64062;DHT22;50308;47.438;-1.528;2022-09-27T05:00:21;15.60;68.40
64062;DHT22;50308;47.438;-1.528;2022-09-27T05:02:47;15.60;68.40
64062;DHT22;50308;47.438;-1.528;2022-09-27T05:05:13;15.60;68.40
64062;DHT22;50308;47.438;-1.528;2022-09-27T05:07:39;15.70;68.30
64062;DHT22;50308;47.438;-1.528;2022-09-27T05:10:05;15.60;68.20
64062;DHT22;50308;47.438;-1.528;2022-09-27T05:12:31;15.60;68.20
64062;DHT22;50308;47.438;-1.528;2022-09-27T05:14:57;15.60;68.20
64062;DHT22;50308;47.438;-1.528;2022-09-27T05:17:22;15.60;68.10
64062;DHT22;50308;47.438;-1.528;2022-09-27T05:19:48;15.60;68.20
64062;DHT22;50308;47.438;-1.528;2022-09-27T05:22:14;15.60;68.10
64062;DHT22;50308;47.438;-1.528;2022-09-27T05:24:39;15.60;68.20
64062;DHT22;50308;47.438;-1.528;2022-09-27T05:27:06;15.60;68.00
64062;DHT22;50308;47.438;-1.528;2022-09-27T05:29:32;15.60;68.10
64062;DHT22;50308;47.438;-1.528;2022-09-27T05:31:58;15.50;68.00
64062;DHT22;50308;47.438;-1.528;2022-09-27T05:34:23;15.50;68.30
64062;DHT22;50308;47.438;-1.528;2022-09-27T05:36:49;15.50;68.60
64062;DHT22;50308;47.438;-1.528;2022-09-27T05:39:15;15.50;68.50
64062;DHT22;50308;47.438;-1.528;2022-09-27T05:41:44;15.50;68.30
64062;DHT22;50308;47.438;-1.528;2022-09-27T05:44:10;15.50;68.20
64062;DHT22;50308;47.438;-1.528;2022-09-27T05:46:37;15.50;68.30
64062;DHT22;50308;47.438;-1.528;2022-09-27T05:49:03;15.40;68.60
64062;DHT22;50308;47.438;-1.528;2022-09-27T05:51:29;15.40;68.60
64062;DHT22;50308;47.438;-1.528;2022-09-27T05:53:56;15.40;68.50
64062;DHT22;50308;47.438;-1.528;2022-09-27T05:56:21;15.30;68.60
64062;DHT22;50308;47.438;-1.528;2022-09-27T05:58:47;15.30;68.70
64062;DHT22;50308;47.438;-1.528;2022-09-27T06:01:12;15.30;68.60
64062;DHT22;50308;47.438;-1.528;2022-09-27T06:03:38;15.30;68.60
64062;DHT22;50308;47.438;-1.528;2022-09-27T06:06:05;15.30;68.60
64062;DHT22;50308;47.438;-1.528;2022-09-27T06:08:32;15.30;68.80
64062;DHT22;50308;47.438;-1.528;2022-09-27T06:10:59;15.30;68.70
64062;DHT22;50308;47.438;-1.528;2022-09-27T06:13:25;15.30;68.70
64062;DHT22;50308;47.438;-1.528;2022-09-27T06:15:51;15.30;68.60
64062;DHT22;50308;47.438;-1.528;2022-09-27T06:18:17;15.20;68.60
64062;DHT22;50308;47.438;-1.528;2022-09-27T06:20:42;15.30;68.60
64062;DHT22;50308;47.438;-1.528;2022-09-27T06:23:12;15.30;68.40
64062;DHT22;50308;47.438;-1.528;2022-09-27T06:25:38;15.20;68.60
64062;DHT22;50308;47.438;-1.528;2022-09-27T06:28:04;15.20;69.70
64062;DHT22;50308;47.438;-1.528;2022-09-27T06:30:30;15.30;68.70
64062;DHT22;50308;47.438;-1.528;2022-09-27T06:32:56;15.30;68.70
64062;DHT22;50308;47.438;-1.528;2022-09-27T06:35:23;15.30;68.40
64062;DHT22;50308;47.438;-1.528;2022-09-27T06:37:50;15.30;68.70
64062;DHT22;50308;47.438;-1.528;2022-09-27T06:40:15;15.30;68.50
64062;DHT22;50308;47.438;-1.528;2022-09-27T06:42:41;15.30;68.60
64062;DHT22;50308;47.438;-1.528;2022-09-27T06:45:06;15.30;68.90
64062;DHT22;50308;47.438;-1.528;2022-09-27T06:47:36;15.20;69.10
64062;DHT22;50308;47.438;-1.528;2022-09-27T06:50:02;15.30;69.00
64062;DHT22;50308;47.438;-1.528;2022-09-27T06:52:34;15.30;69.30
64062;DHT22;50308;47.438;-1.528;2022-09-27T06:55:00;15.20;69.40
64062;DHT22;50308;47.438;-1.528;2022-09-27T06:57:26;15.20;69.40
64062;DHT22;50308;47.438;-1.528;2022-09-27T07:00:11;15.30;69.40
64062;DHT22;50308;47.438;-1.528;2022-09-27T07:02:49;15.30;69.50
64062;DHT22;50308;47.438;-1.528;2022-09-27T07:05:18;15.40;69.40
64062;DHT22;50308;47.438;-1.528;2022-09-27T07:07:44;15.40;69.50
64062;DHT22;50308;47.438;-1.528;2022-09-27T07:10:10;15.40;69.20
64062;DHT22;50308;47.438;-1.528;2022-09-27T07:12:36;15.40;69.20
64062;DHT22;50308;47.438;-1.528;2022-09-27T07:15:02;15.50;69.30
64062;DHT22;50308;47.438;-1.528;2022-09-27T07:17:28;15.50;69.10
64062;DHT22;50308;47.438;-1.528;2022-09-27T07:19:54;15.60;69.10
64062;DHT22;50308;47.438;-1.528;2022-09-27T07:22:19;15.60;68.90
64062;DHT22;50308;47.438;-1.528;2022-09-27T07:24:45;15.60;68.90
64062;DHT22;50308;47.438;-1.528;2022-09-27T07:27:11;15.60;69.10
64062;DHT22;50308;47.438;-1.528;2022-09-27T07:29:36;15.60;68.90
64062;DHT22;50308;47.438;-1.528;2022-09-27T07:32:03;15.70;68.80
64062;DHT22;50308;47.438;-1.528;2022-09-27T07:34:29;15.70;68.70
64062;DHT22;50308;47.438;-1.528;2022-09-27T07:36:58;15.70;68.70
64062;DHT22;50308;47.438;-1.528;2022-09-27T07:39:24;15.80;68.50
64062;DHT22;50308;47.438;-1.528;2022-09-27T07:41:50;15.80;68.50
64062;DHT22;50308;47.438;-1.528;2022-09-27T07:44:16;15.80;68.40
64062;DHT22;50308;47.438;-1.528;2022-09-27T07:46:42;15.80;68.40
64062;DHT22;50308;47.438;-1.528;2022-09-27T07:49:07;15.90;68.10
64062;DHT22;50308;47.438;-1.528;2022-09-27T07:51:33;15.90;68.00
64062;DHT22;50308;47.438;-1.528;2022-09-27T07:53:59;15.90;67.70
64062;DHT22;50308;47.438;-1.528;2022-09-27T07:56:25;16.00;67.90
64062;DHT22;50308;47.438;-1.528;2022-09-27T07:58:51;16.00;67.60
64062;DHT22;50308;47.438;-1.528;2022-09-27T08:01:17;16.00;67.40
64062;DHT22;50308;47.438;-1.528;2022-09-27T08:03:42;16.00;67.30
64062;DHT22;50308;47.438;-1.528;2022-09-27T08:06:08;16.00;67.70
64062;DHT22;50308;47.438;-1.528;2022-09-27T08:08:34;16.00;67.80
64062;DHT22;50308;47.438;-1.528;2022-09-27T08:11:00;16.00;67.70
64062;DHT22;50308;47.438;-1.528;2022-09-27T08:13:25;16.00;67.70
64062;DHT22;50308;47.438;-1.528;2022-09-27T08:15:51;16.00;67.70
64062;DHT22;50308;47.438;-1.528;2022-09-27T08:18:17;16.00;67.50
64062;DHT22;50308;47.438;-1.528;2022-09-27T08:20:43;16.00;67.60
64062;DHT22;50308;47.438;-1.528;2022-09-27T08:23:08;16.00;67.50
64062;DHT22;50308;47.438;-1.528;2022-09-27T08:25:34;16.10;67.60
64062;DHT22;50308;47.438;-1.528;2022-09-27T08:28:01;16.20;67.70
64062;DHT22;50308;47.438;-1.528;2022-09-27T08:30:27;16.20;67.50
64062;DHT22;50308;47.438;-1.528;2022-09-27T08:32:55;16.30;67.50
64062;DHT22;50308;47.438;-1.528;2022-09-27T08:35:21;16.30;68.20
64062;DHT22;50308;47.438;-1.528;2022-09-27T08:37:54;16.30;66.50
64062;DHT22;50308;47.438;-1.528;2022-09-27T08:40:19;16.40;66.60
64062;DHT22;50308;47.438;-1.528;2022-09-27T08:42:57;16.40;66.40
64062;DHT22;50308;47.438;-1.528;2022-09-27T08:45:28;16.40;66.40
64062;DHT22;50308;47.438;-1.528;2022-09-27T08:47:57;16.50;66.20
64062;DHT22;50308;47.438;-1.528;2022-09-27T08:50:29;16.50;66.80
64062;DHT22;50308;47.438;-1.528;2022-09-27T08:53:00;16.50;65.40
64062;DHT22;50308;47.438;-1.528;2022-09-27T08:55:37;16.50;65.50
64062;DHT22;50308;47.438;-1.528;2022-09-27T08:58:15;16.50;64.90
64062;DHT22;50308;47.438;-1.528;2022-09-27T09:00:41;16.50;65.00
64062;DHT22;50308;47.438;-1.528;2022-09-27T09:03:09;16.50;65.20
64062;DHT22;50308;47.438;-1.528;2022-09-27T09:05:40;16.60;65.00
64062;DHT22;50308;47.438;-1.528;2022-09-27T09:10:52;16.60;65.30
64062;DHT22;50308;47.438;-1.528;2022-09-27T09:13:58;16.60;65.00
64062;DHT22;50308;47.438;-1.528;2022-09-27T09:34:31;16.70;64.60
64062;DHT22;50308;47.438;-1.528;2022-09-27T09:37:00;16.80;64.60
64062;DHT22;50308;47.438;-1.528;2022-09-27T09:39:32;16.80;65.00
64062;DHT22;50308;47.438;-1.528;2022-09-27T09:42:09;16.80;64.60
64062;DHT22;50308;47.438;-1.528;2022-09-27T09:47:35;16.80;64.60
64062;DHT22;50308;47.438;-1.528;2022-09-27T09:50:05;16.80;64.40
64062;DHT22;50308;47.438;-1.528;2022-09-27T09:52:39;16.80;64.10
64062;DHT22;50308;47.438;-1.528;2022-09-27T09:55:12;16.80;63.90
64062;DHT22;50308;47.438;-1.528;2022-09-27T09:57:42;16.80;63.50
64062;DHT22;50308;47.438;-1.528;2022-09-27T10:00:12;16.90;63.80
64062;DHT22;50308;47.438;-1.528;2022-09-27T10:02:39;16.90;64.00
64062;DHT22;50308;47.438;-1.528;2022-09-27T10:05:06;16.90;63.70
64062;DHT22;50308;47.438;-1.528;2022-09-27T10:07:33;16.90;63.70
64062;DHT22;50308;47.438;-1.528;2022-09-27T10:10:01;16.90;63.30
64062;DHT22;50308;47.438;-1.528;2022-09-27T10:12:29;17.00;63.60
64062;DHT22;50308;47.438;-1.528;2022-09-27T10:14:56;17.00;63.20
64062;DHT22;50308;47.438;-1.528;2022-09-27T10:17:24;17.00;63.40
64062;DHT22;50308;47.438;-1.528;2022-09-27T10:19:51;17.00;63.70
64062;DHT22;50308;47.438;-1.528;2022-09-27T10:22:37;17.00;63.70
64062;DHT22;50308;47.438;-1.528;2022-09-27T10:25:05;17.00;63.10
64062;DHT22;50308;47.438;-1.528;2022-09-27T10:27:41;17.00;63.10
64062;DHT22;50308;47.438;-1.528;2022-09-27T10:30:25;17.00;63.00
64062;DHT22;50308;47.438;-1.528;2022-09-27T10:32:52;17.10;62.80
64062;DHT22;50308;47.438;-1.528;2022-09-27T10:36:06;17.10;63.10
64062;DHT22;50308;47.438;-1.528;2022-09-27T10:38:11;17.10;62.90
64062;DHT22;50308;47.438;-1.528;2022-09-27T10:40:45;17.10;63.00
64062;DHT22;50308;47.438;-1.528;2022-09-27T10:43:28;17.20;63.00
64062;DHT22;50308;47.438;-1.528;2022-09-27T10:48:39;17.20;62.70
64062;DHT22;50308;47.438;-1.528;2022-09-27T10:51:07;17.20;62.50
64062;DHT22;50308;47.438;-1.528;2022-09-27T10:53:43;17.20;62.10
64062;DHT22;50308;47.438;-1.528;2022-09-27T10:56:13;17.20;62.20
64062;DHT22;50308;47.438;-1.528;2022-09-27T10:58:44;17.20;61.40
64062;DHT22;50308;47.438;-1.528;2022-09-27T11:01:10;17.20;61.80
64062;DHT22;50308;47.438;-1.528;2022-09-27T11:03:47;17.20;62.00
64062;DHT22;50308;47.438;-1.528;2022-09-27T11:08:48;17.20;61.80
64062;DHT22;50308;47.438;-1.528;2022-09-27T11:11:22;17.30;62.40
64062;DHT22;50308;47.438;-1.528;2022-09-27T11:31:53;17.30;61.80
64062;DHT22;50308;47.438;-1.528;2022-09-27T11:34:43;17.30;62.00
64062;DHT22;50308;47.438;-1.528;2022-09-27T11:48:07;17.40;61.70
64062;DHT22;50308;47.438;-1.528;2022-09-27T11:53:08;17.40;62.80
64062;DHT22;50308;47.438;-1.528;2022-09-27T12:11:13;17.40;62.00
64062;DHT22;50308;47.438;-1.528;2022-09-27T12:13:51;17.40;62.00
64062;DHT22;50308;47.438;-1.528;2022-09-27T12:16:18;17.40;61.90
64062;DHT22;50308;47.438;-1.528;2022-09-27T12:18:45;17.50;61.90
64062;DHT22;50308;47.438;-1.528;2022-09-27T12:21:11;17.50;61.70
64062;DHT22;50308;47.438;-1.528;2022-09-27T12:26:19;17.50;62.40
64062;DHT22;50308;47.438;-1.528;2022-09-27T12:28:53;17.50;62.00
64062;DHT22;50308;47.438;-1.528;2022-09-27T12:31:34;17.50;62.00
64062;DHT22;50308;47.438;-1.528;2022-09-27T12:34:03;17.50;61.90
64062;DHT22;50308;47.438;-1.528;2022-09-27T12:36:33;17.50;62.90
64062;DHT22;50308;47.438;-1.528;2022-09-27T12:41:31;17.50;62.50
64062;DHT22;50308;47.438;-1.528;2022-09-27T12:44:00;17.50;62.30
64062;DHT22;50308;47.438;-1.528;2022-09-27T12:46:30;17.50;62.50
64062;DHT22;50308;47.438;-1.528;2022-09-27T13:09:19;17.60;63.50
64062;DHT22;50308;47.438;-1.528;2022-09-27T13:14:25;17.60;63.30
64062;DHT22;50308;47.438;-1.528;2022-09-27T13:16:52;17.60;63.40
64062;DHT22;50308;47.438;-1.528;2022-09-27T13:21:58;17.60;63.50
64062;DHT22;50308;47.438;-1.528;2022-09-27T13:27:23;17.70;63.80
64062;DHT22;50308;47.438;-1.528;2022-09-27T13:29:48;17.60;63.90
64062;DHT22;50308;47.438;-1.528;2022-09-27T13:32:23;17.70;63.90
64062;DHT22;50308;47.438;-1.528;2022-09-27T13:34:54;17.70;64.10
64062;DHT22;50308;47.438;-1.528;2022-09-27T13:37:36;17.70;64.10
64062;DHT22;50308;47.438;-1.528;2022-09-27T13:40:09;17.60;64.30
64062;DHT22;50308;47.438;-1.528;2022-09-27T13:42:36;17.70;64.30
64062;DHT22;50308;47.438;-1.528;2022-09-27T13:48:07;17.70;64.50
64062;DHT22;50308;47.438;-1.528;2022-09-27T13:50:51;17.70;64.70
64062;DHT22;50308;47.438;-1.528;2022-09-27T13:55:55;17.70;64.50
64062;DHT22;50308;47.438;-1.528;2022-09-27T14:01:14;17.70;65.00
64062;DHT22;50308;47.438;-1.528;2022-09-27T14:03:50;17.70;64.90
64062;DHT22;50308;47.438;-1.528;2022-09-27T14:06:18;17.70;65.20
64062;DHT22;50308;47.438;-1.528;2022-09-27T14:08:45;17.70;65.60
64062;DHT22;50308;47.438;-1.528;2022-09-27T14:11:14;17.70;66.10
64062;DHT22;50308;47.438;-1.528;2022-09-27T14:13:41;17.70;65.80
64062;DHT22;50308;47.438;-1.528;2022-09-27T14:16:12;17.70;66.10
64062;DHT22;50308;47.438;-1.528;2022-09-27T14:18:41;17.70;66.20
64062;DHT22;50308;47.438;-1.528;2022-09-27T14:21:15;17.70;66.30
64062;DHT22;50308;47.438;-1.528;2022-09-27T14:23:41;17.70;66.00
64062;DHT22;50308;47.438;-1.528;2022-09-27T14:26:20;17.70;66.60
64062;DHT22;50308;47.438;-1.528;2022-09-27T14:28:46;17.80;66.60
64062;DHT22;50308;47.438;-1.528;2022-09-27T14:33:44;17.70;67.60
64062;DHT22;50308;47.438;-1.528;2022-09-27T14:38:59;17.80;68.00
64062;DHT22;50308;47.438;-1.528;2022-09-27T14:41:25;17.80;68.10
64062;DHT22;50308;47.438;-1.528;2022-09-27T14:43:51;17.80;67.30
64062;DHT22;50308;47.438;-1.528;2022-09-27T14:46:28;17.80;67.60
64062;DHT22;50308;47.438;-1.528;2022-09-27T14:48:54;17.80;67.90
64062;DHT22;50308;47.438;-1.528;2022-09-27T14:51:21;17.80;67.80
64062;DHT22;50308;47.438;-1.528;2022-09-27T14:53:51;17.80;67.70
64062;DHT22;50308;47.438;-1.528;2022-09-27T14:56:28;17.80;67.90
64062;DHT22;50308;47.438;-1.528;2022-09-27T15:01:37;17.80;68.50
64062;DHT22;50308;47.438;-1.528;2022-09-27T15:04:10;17.80;68.30
64062;DHT22;50308;47.438;-1.528;2022-09-27T15:06:37;17.80;67.90
64062;DHT22;50308;47.438;-1.528;2022-09-27T15:09:03;17.80;68.20
64062;DHT22;50308;47.438;-1.528;2022-09-27T15:11:29;17.80;68.80
64062;DHT22;50308;47.438;-1.528;2022-09-27T15:13:57;17.80;69.20
64062;DHT22;50308;47.438;-1.528;2022-09-27T15:16:26;17.80;69.80
64062;DHT22;50308;47.438;-1.528;2022-09-27T15:19:02;17.80;69.10
64062;DHT22;50308;47.438;-1.528;2022-09-27T15:21:34;17.90;69.00
64062;DHT22;50308;47.438;-1.528;2022-09-27T15:24:00;17.90;69.00
64062;DHT22;50308;47.438;-1.528;2022-09-27T15:29:04;17.80;68.50
64062;DHT22;50308;47.438;-1.528;2022-09-27T15:31:34;17.90;68.40
64062;DHT22;50308;47.438;-1.528;2022-09-27T15:34:00;17.80;71.60
64062;DHT22;50308;47.438;-1.528;2022-09-27T15:39:11;17.90;72.40
64062;DHT22;50308;47.438;-1.528;2022-09-27T15:49:55;17.90;74.00
64062;DHT22;50308;47.438;-1.528;2022-09-27T15:52:38;17.90;74.00
64062;DHT22;50308;47.438;-1.528;2022-09-27T15:55:04;17.90;74.90
64062;DHT22;50308;47.438;-1.528;2022-09-27T15:57:29;17.90;73.10
64062;DHT22;50308;47.438;-1.528;2022-09-27T15:59:56;17.90;73.80
64062;DHT22;50308;47.438;-1.528;2022-09-27T16:02:21;17.90;70.80
64062;DHT22;50308;47.438;-1.528;2022-09-27T16:04:47;17.90;70.80
64062;DHT22;50308;47.438;-1.528;2022-09-27T16:07:12;17.90;70.50
64062;DHT22;50308;47.438;-1.528;2022-09-27T16:09:39;17.90;71.10
64062;DHT22;50308;47.438;-1.528;2022-09-27T16:12:04;17.90;69.50
64062;DHT22;50308;47.438;-1.528;2022-09-27T16:14:30;17.90;69.50
64062;DHT22;50308;47.438;-1.528;2022-09-27T16:16:56;17.90;70.70
64062;DHT22;50308;47.438;-1.528;2022-09-27T16:19:22;17.90;72.00
64062;DHT22;50308;47.438;-1.528;2022-09-27T16:21:48;17.90;71.50
64062;DHT22;50308;47.438;-1.528;2022-09-27T16:24:14;17.90;69.60
64062;DHT22;50308;47.438;-1.528;2022-09-27T16:26:40;17.90;70.50
64062;DHT22;50308;47.438;-1.528;2022-09-27T16:29:09;17.90;69.70
64062;DHT22;50308;47.438;-1.528;2022-09-27T16:31:35;17.90;69.40
64062;DHT22;50308;47.438;-1.528;2022-09-27T16:34:00;17.90;70.70
64062;DHT22;50308;47.438;-1.528;2022-09-27T16:36:26;17.90;69.60
64062;DHT22;50308;47.438;-1.528;2022-09-27T16:38:52;17.90;69.80
64062;DHT22;50308;47.438;-1.528;2022-09-27T16:41:18;17.90;70.50
64062;DHT22;50308;47.438;-1.528;2022-09-27T16:43:44;18.00;70.00
64062;DHT22;50308;47.438;-1.528;2022-09-27T16:46:11;18.00;69.90
64062;DHT22;50308;47.438;-1.528;2022-09-27T16:48:38;18.00;70.10
64062;DHT22;50308;47.438;-1.528;2022-09-27T16:51:17;18.00;69.50
64062;DHT22;50308;47.438;-1.528;2022-09-27T16:54:02;18.00;69.50
64062;DHT22;50308;47.438;-1.528;2022-09-27T16:56:27;18.00;69.80
64062;DHT22;50308;47.438;-1.528;2022-09-27T16:58:56;18.00;73.30
64062;DHT22;50308;47.438;-1.528;2022-09-27T17:01:22;18.00;71.70
64062;DHT22;50308;47.438;-1.528;2022-09-27T17:03:48;18.00;71.70
64062;DHT22;50308;47.438;-1.528;2022-09-27T17:06:15;18.00;71.70
64062;DHT22;50308;47.438;-1.528;2022-09-27T17:08:40;18.00;71.10
64062;DHT22;50308;47.438;-1.528;2022-09-27T17:11:06;18.00;73.30
64062;DHT22;50308;47.438;-1.528;2022-09-27T17:13:32;18.00;72.80
64062;DHT22;50308;47.438;-1.528;2022-09-27T17:15:58;18.00;71.60
64062;DHT22;50308;47.438;-1.528;2022-09-27T17:18:24;18.00;72.80
64062;DHT22;50308;47.438;-1.528;2022-09-27T17:20:49;18.10;76.40
64062;DHT22;50308;47.438;-1.528;2022-09-27T17:23:15;18.10;73.60
64062;DHT22;50308;47.438;-1.528;2022-09-27T17:25:40;18.10;77.10
64062;DHT22;50308;47.438;-1.528;2022-09-27T17:28:06;18.10;77.20
64062;DHT22;50308;47.438;-1.528;2022-09-27T17:30:31;18.10;76.20
64062;DHT22;50308;47.438;-1.528;2022-09-27T17:32:59;18.10;75.40
64062;DHT22;50308;47.438;-1.528;2022-09-27T17:35:24;18.10;75.00
64062;DHT22;50308;47.438;-1.528;2022-09-27T17:37:50;18.10;74.90
64062;DHT22;50308;47.438;-1.528;2022-09-27T17:40:15;18.10;75.20
64062;DHT22;50308;47.438;-1.528;2022-09-27T17:42:41;18.10;76.00
64062;DHT22;50308;47.438;-1.528;2022-09-27T17:45:07;18.10;76.30
64062;DHT22;50308;47.438;-1.528;2022-09-27T17:47:33;18.10;79.00
64062;DHT22;50308;47.438;-1.528;2022-09-27T17:50:17;18.10;76.70
64062;DHT22;50308;47.438;-1.528;2022-09-27T17:52:49;18.10;74.20
64062;DHT22;50308;47.438;-1.528;2022-09-27T17:55:14;18.10;75.20
64062;DHT22;50308;47.438;-1.528;2022-09-27T17:57:40;18.10;75.70
64062;DHT22;50308;47.438;-1.528;2022-09-27T18:00:05;18.10;74.50
64062;DHT22;50308;47.438;-1.528;2022-09-27T18:02:31;18.10;76.00
64062;DHT22;50308;47.438;-1.528;2022-09-27T18:04:57;18.10;73.40
64062;DHT22;50308;47.438;-1.528;2022-09-27T18:07:22;18.10;75.30
64062;DHT22;50308;47.438;-1.528;2022-09-27T18:09:48;18.10;76.80
64062;DHT22;50308;47.438;-1.528;2022-09-27T18:12:15;18.10;75.80
64062;DHT22;50308;47.438;-1.528;2022-09-27T18:14:41;18.10;76.50
64062;DHT22;50308;47.438;-1.528;2022-09-27T18:17:07;18.10;77.00
64062;DHT22;50308;47.438;-1.528;2022-09-27T18:19:35;18.10;74.70
64062;DHT22;50308;47.438;-1.528;2022-09-27T18:22:01;18.10;74.10